Time;durP1;ratioP1;P1;durP2;ratioP2;P2;SDS_P1;SDS_P2;PMS_P1;PMS_P2;Temp;Humidity;BMP_temperature;BMP_pressure;BME280_temperature;BME280_humidity;BME280_pressure;Samples;Min_cycle;Max_cycle;Signal;HPM_P1;HPM_P2
2021/01/06 00:00:13;;;;;;;8.25;3.30;;;1.90;99.90;;;;;;5024577;28;20041;-79
2021/01/06 00:02:39;;;;;;;8.60;3.22;;;1.90;99.90;;;;;;5023615;28;20511;-79
2021/01/06 00:05:15;;;;;;;8.43;3.25;;;1.90;99.90;;;;;;5022480;28;20033;-77
2021/01/06 00:07:43;;;;;;;9.52;3.90;;;2.00;99.80;;;;;;5022281;28;20731;-79
2021/01/06 00:10:11;;;;;;;15.25;3.30;;;2.00;99.90;;;;;;5022010;28;20061;-78
2021/01/06 00:12:36;;;;;;;9.88;3.40;;;2.00;99.70;;;;;;5024368;28;20060;-78
2021/01/06 00:15:04;;;;;;;9.68;3.67;;;2.00;99.90;;;;;;5024723;28;20551;-79
2021/01/06 00:17:31;;;;;;;8.68;4.03;;;2.00;99.70;;;;;;5040028;28;20443;-79
2021/01/06 00:19:56;;;;;;;10.85;3.95;;;2.10;99.80;;;;;;5024571;28;20091;-78
2021/01/06 00:22:22;;;;;;;10.05;3.83;;;2.00;99.90;;;;;;5026089;28;20033;-79
2021/01/06 00:24:48;;;;;;;7.03;3.50;;;2.00;99.90;;;;;;5021497;28;20128;-79
2021/01/06 00:27:13;;;;;;;12.90;3.88;;;2.00;99.80;;;;;;5022752;28;20052;-78
2021/01/06 00:29:39;;;;;;;6.80;3.85;;;2.00;99.90;;;;;;5018800;28;20135;-79
2021/01/06 00:32:05;;;;;;;10.15;4.20;;;2.00;99.80;;;;;;5039286;28;20033;-78
2021/01/06 00:34:30;;;;;;;12.40;3.45;;;2.10;99.80;;;;;;5028788;28;20034;-79
2021/01/06 00:36:56;;;;;;;5.45;3.22;;;2.00;99.80;;;;;;5024515;28;20038;-78
2021/01/06 00:39:22;;;;;;;8.65;3.60;;;2.00;99.90;;;;;;5022369;28;20049;-79
2021/01/06 00:41:48;;;;;;;10.55;3.58;;;2.00;99.90;;;;;;5023817;28;20050;-78
2021/01/06 00:44:14;;;;;;;7.70;3.78;;;2.10;99.80;;;;;;5025097;28;20100;-79
2021/01/06 00:46:44;;;;;;;7.93;3.67;;;2.10;99.80;;;;;;5007951;28;20079;-79
2021/01/06 00:49:09;;;;;;;8.98;3.80;;;2.10;99.50;;;;;;5022886;28;20045;-78
2021/01/06 00:51:35;;;;;;;7.95;4.15;;;2.10;99.70;;;;;;5024598;28;20053;-79
2021/01/06 00:54:01;;;;;;;9.77;3.72;;;2.10;99.40;;;;;;5026490;28;20060;-79
2021/01/06 00:56:29;;;;;;;6.95;3.90;;;2.20;99.40;;;;;;5038318;28;20123;-79
2021/01/06 00:58:55;;;;;;;9.57;4.50;;;2.10;99.70;;;;;;5026545;28;20429;-80
2021/01/06 01:01:25;;;;;;;12.50;4.22;;;2.10;99.70;;;;;;5026268;28;20400;-80
2021/01/06 01:03:51;;;;;;;8.20;4.30;;;2.10;99.80;;;;;;5026069;28;20049;-80
2021/01/06 01:06:28;;;;;;;12.05;3.95;;;2.10;99.80;;;;;;5026996;28;20481;-81
2021/01/06 01:08:58;;;;;;;10.68;4.07;;;2.10;99.70;;;;;;5024793;28;20052;-80
2021/01/06 01:11:24;;;;;;;7.13;3.78;;;2.10;99.60;;;;;;5025014;28;20041;-80
2021/01/06 01:13:51;;;;;;;9.15;4.07;;;2.10;99.50;;;;;;5026803;28;20072;-81
2021/01/06 01:16:18;;;;;;;8.60;3.88;;;2.20;99.60;;;;;;5009170;28;20095;-80
2021/01/06 01:18:43;;;;;;;10.88;4.30;;;2.10;99.70;;;;;;5024825;28;20053;-81
2021/01/06 01:21:09;;;;;;;7.18;3.88;;;2.10;99.70;;;;;;5025905;28;20038;-80
2021/01/06 01:23:35;;;;;;;14.38;4.72;;;2.20;99.80;;;;;;5026507;28;20053;-80
2021/01/06 01:26:01;;;;;;;14.52;4.80;;;2.20;99.70;;;;;;5023050;28;20456;-80
2021/01/06 01:28:28;;;;;;;8.68;5.03;;;2.20;99.80;;;;;;5029534;28;20034;-80
2021/01/06 01:30:55;;;;;;;7.38;4.05;;;2.20;99.90;;;;;;5030681;28;20033;-80
2021/01/06 01:33:23;;;;;;;9.02;4.40;;;2.20;99.90;;;;;;5028706;28;20037;-81
2021/01/06 01:35:49;;;;;;;15.18;4.75;;;2.30;99.80;;;;;;5023443;28;20081;-81
2021/01/06 01:38:18;;;;;;;10.52;4.50;;;2.20;99.80;;;;;;5026751;28;20132;-80
2021/01/06 01:40:44;;;;;;;14.93;4.82;;;2.50;99.90;;;;;;5028969;28;20080;-81
2021/01/06 01:43:13;;;;;;;7.88;4.05;;;2.20;99.90;;;;;;5030732;28;20095;-81
2021/01/06 01:45:45;;;;;;;19.05;5.40;;;2.20;99.60;;;;;;5027999;28;20049;-81
2021/01/06 01:48:36;;;;;;;11.82;4.60;;;2.30;99.50;;;;;;5024014;28;20107;-82
2021/01/06 01:51:17;;;;;;;6.13;4.03;;;2.30;99.60;;;;;;5025649;28;20111;-81
2021/01/06 01:53:55;;;;;;;11.43;4.90;;;2.30;99.70;;;;;;5026968;28;20057;-82
2021/01/06 01:56:25;;;;;;;11.57;4.63;;;2.20;99.70;;;;;;5044133;28;20053;-81
2021/01/06 01:58:52;;;;;;;9.65;4.88;;;2.40;99.50;;;;;;5022375;28;20050;-80
2021/01/06 02:01:19;;;;;;;10.82;4.85;;;2.50;99.70;;;;;;5028417;28;20497;-80
2021/01/06 02:03:54;;;;;;;11.52;4.47;;;2.30;99.70;;;;;;5026133;28;20154;-81
2021/01/06 02:06:22;;;;;;;;;;;2.50;99.70;;;;;;5026259;28;20033;-80
2021/01/06 02:09:01;;;;;;;16.55;4.95;;;2.60;99.70;;;;;;5030427;28;19923;-81
2021/01/06 02:11:39;;;;;;;13.35;4.55;;;2.30;99.60;;;;;;5028888;28;20029;-82
2021/01/06 02:14:13;;;;;;;8.95;5.03;;;2.30;99.50;;;;;;5030694;28;20056;-81
2021/01/06 02:17:11;;;;;;;14.10;5.30;;;2.50;99.60;;;;;;5010776;28;20489;-80
2021/01/06 02:19:42;;;;;;;11.15;5.18;;;2.30;99.60;;;;;;5011194;28;20056;-79
2021/01/06 02:22:12;;;;;;;13.32;5.18;;;2.30;99.60;;;;;;5027780;28;20033;-79
2021/01/06 02:24:38;;;;;;;9.13;5.10;;;2.30;99.70;;;;;;5026938;28;20045;-79
2021/01/06 02:27:04;;;;;;;10.25;4.78;;;2.30;99.80;;;;;;5030471;28;20141;-80
2021/01/06 02:29:32;;;;;;;9.05;4.47;;;2.30;99.60;;;;;;5027620;28;20511;-80
2021/01/06 02:31:58;;;;;;;9.27;5.00;;;2.30;99.70;;;;;;5029488;28;20037;-79
2021/01/06 02:34:25;;;;;;;12.18;4.82;;;2.30;99.80;;;;;;5027555;28;20120;-79
2021/01/06 02:36:52;;;;;;;14.57;5.93;;;2.30;99.80;;;;;;5028120;28;21914;-79
2021/01/06 02:39:18;;;;;;;14.27;5.32;;;2.30;99.90;;;;;;5022460;28;20053;-80
2021/01/06 02:41:47;;;;;;;11.27;5.32;;;2.30;99.90;;;;;;5027004;28;20443;-80
2021/01/06 02:44:14;;;;;;;10.52;5.07;;;2.30;99.90;;;;;;5025571;28;20054;-79
2021/01/06 02:46:40;;;;;;;11.88;5.53;;;2.20;99.90;;;;;;5028067;28;20143;-79
2021/01/06 02:49:06;;;;;;;12.20;5.75;;;2.20;99.90;;;;;;5027282;28;20424;-80
2021/01/06 02:51:53;;;;;;;11.93;4.57;;;2.20;99.90;;;;;;5028844;28;20078;-79
2021/01/06 02:54:31;;;;;;;11.18;5.15;;;2.20;99.90;;;;;;5026808;28;20045;-79
2021/01/06 02:57:01;;;;;;;12.30;5.20;;;2.20;99.90;;;;;;5028056;28;20064;-80
2021/01/06 02:59:37;;;;;;;10.63;5.35;;;2.20;99.90;;;;;;5027225;28;20033;-79
2021/01/06 03:02:06;;;;;;;13.95;5.20;;;2.20;99.90;;;;;;5042570;28;20475;-79
2021/01/06 03:04:36;;;;;;;9.82;5.13;;;2.10;99.90;;;;;;5026531;28;20049;-80
2021/01/06 03:07:05;;;;;;;14.20;5.28;;;2.20;99.90;;;;;;5006600;28;20045;-80
2021/01/06 03:09:41;;;;;;;10.20;5.00;;;2.20;99.90;;;;;;5028461;28;20049;-80
2021/01/06 03:12:17;;;;;;;12.23;5.15;;;2.20;99.90;;;;;;5027602;28;20793;-79
2021/01/06 03:14:44;;;;;;;14.23;5.03;;;2.20;99.90;;;;;;5010995;28;20042;-80
2021/01/06 03:17:12;;;;;;;10.48;5.20;;;2.20;99.90;;;;;;5027219;28;20135;-80
2021/01/06 03:19:43;;;;;;;9.10;4.88;;;2.20;99.90;;;;;;5025638;28;20210;-79
2021/01/06 03:22:11;;;;;;;16.35;5.45;;;2.20;99.90;;;;;;5042642;28;20037;-80
2021/01/06 03:24:43;;;;;;;11.40;5.07;;;2.20;99.90;;;;;;5028513;28;20790;-80
2021/01/06 03:27:11;;;;;;;10.13;4.78;;;2.30;99.90;;;;;;5011407;28;20041;-79
2021/01/06 03:29:38;;;;;;;12.25;4.72;;;2.30;99.90;;;;;;5027974;28;20037;-80
2021/01/06 03:32:15;;;;;;;9.93;4.60;;;2.30;99.90;;;;;;5029389;28;20033;-79
2021/01/06 03:34:47;;;;;;;14.10;4.25;;;2.30;99.90;;;;;;5046483;28;20112;-80
2021/01/06 03:37:26;;;;;;;7.93;3.97;;;2.30;99.90;;;;;;5029150;28;20084;-80
2021/01/06 03:40:06;;;;;;;12.43;4.47;;;2.30;99.70;;;;;;5027021;28;20038;-79
2021/01/06 03:42:33;;;;;;;9.73;4.60;;;2.30;99.60;;;;;;5026668;28;20045;-80
2021/01/06 03:45:00;;;;;;;13.30;4.63;;;2.30;99.90;;;;;;5026788;28;20082;-80
2021/01/06 03:47:32;;;;;;;14.88;4.57;;;2.30;99.90;;;;;;5027608;28;20045;-80
2021/01/06 03:50:03;;;;;;;13.27;4.85;;;2.40;99.60;;;;;;5027863;28;20037;-80
2021/01/06 03:52:58;;;;;;;9.68;4.35;;;2.30;99.80;;;;;;5027331;28;20033;-80
2021/01/06 03:55:37;;;;;;;10.35;3.88;;;2.30;99.70;;;;;;5027846;28;20116;-80
2021/01/06 03:58:04;;;;;;;15.32;4.43;;;2.30;99.70;;;;;;5026586;28;20037;-79
2021/01/06 04:00:51;;;;;;;10.45;4.00;;;2.30;99.70;;;;;;5026865;28;20408;-79
2021/01/06 04:03:42;;;;;;;21.65;4.57;;;2.30;99.80;;;;;;5027236;28;20119;-79
2021/01/06 04:06:10;;;;;;;8.02;3.58;;;2.30;99.70;;;;;;5025189;28;20033;-80
2021/01/06 04:09:17;;;;;;;11.60;4.78;;;2.30;99.60;;;;;;5026772;28;20765;-80
2021/01/06 04:11:54;;;;;;;7.35;4.30;;;2.30;99.60;;;;;;5003407;28;20077;-79
2021/01/06 04:14:19;;;;;;;9.70;3.95;;;2.30;99.70;;;;;;4988290;28;20132;-80
2021/01/06 04:16:45;;;;;;;14.65;4.47;;;2.20;99.80;;;;;;4988512;28;20113;-79
2021/01/06 04:19:11;;;;;;;8.60;4.43;;;2.20;99.80;;;;;;5004344;28;20065;-81
2021/01/06 04:21:37;;;;;;;11.48;4.47;;;2.20;99.90;;;;;;5004628;28;20062;-79
2021/01/06 04:24:03;;;;;;;10.93;4.10;;;2.20;99.70;;;;;;5003824;28;20084;-80
2021/01/06 04:26:28;;;;;;;8.55;4.30;;;2.20;99.90;;;;;;4987666;28;20389;-79
2021/01/06 04:28:54;;;;;;;10.80;4.10;;;2.20;99.90;;;;;;4971859;28;20095;-79
2021/01/06 04:31:21;;;;;;;9.15;3.22;;;2.30;99.70;;;;;;5004773;28;20033;-79
2021/01/06 04:33:51;;;;;;;9.23;4.10;;;2.40;99.70;;;;;;5001694;28;20065;-79
2021/01/06 04:36:20;;;;;;;7.85;3.53;;;2.30;99.60;;;;;;5004315;28;20626;-79
2021/01/06 04:38:49;;;;;;;9.48;3.97;;;2.20;99.60;;;;;;5004595;28;20057;-79
2021/01/06 04:41:38;;;;;;;7.05;3.47;;;2.20;99.60;;;;;;4988602;28;20042;-79
2021/01/06 04:44:18;;;;;;;13.18;3.58;;;2.20;99.60;;;;;;5003752;28;20052;-80
2021/01/06 04:46:44;;;;;;;10.63;4.03;;;2.20;99.60;;;;;;5024477;28;20063;-79
2021/01/06 04:49:32;;;;;;;9.45;3.72;;;2.20;99.60;;;;;;5025512;28;20041;-80
2021/01/06 04:52:14;;;;;;;10.32;3.90;;;2.20;99.70;;;;;;5007315;28;20049;-80
2021/01/06 04:54:55;;;;;;;9.38;3.60;;;2.40;99.90;;;;;;5010549;28;20050;-79
2021/01/06 04:57:47;;;;;;;11.98;3.65;;;2.20;99.90;;;;;;5026140;28;20041;-80
2021/01/06 05:00:15;;;;;;;12.55;3.75;;;2.10;99.90;;;;;;5023658;28;20392;-80
2021/01/06 05:03:19;;;;;;;8.93;3.30;;;2.10;99.90;;;;;;5027806;28;20041;-79
2021/01/06 05:06:04;;;;;;;7.78;3.28;;;2.10;99.90;;;;;;5029440;28;20526;-79
2021/01/06 05:08:35;;;;;;;9.00;3.83;;;2.10;99.90;;;;;;5029148;28;20049;-79
2021/01/06 05:11:13;;;;;;;18.65;3.60;;;2.10;99.90;;;;;;5046118;28;20480;-79
2021/01/06 05:13:45;;;;;;;9.60;3.35;;;2.20;99.80;;;;;;5045450;28;20544;-79
2021/01/06 05:16:20;;;;;;;9.60;3.42;;;2.20;99.80;;;;;;5029993;28;20041;-80
2021/01/06 05:18:46;;;;;;;10.85;3.80;;;2.20;99.80;;;;;;5029955;28;20088;-80
2021/01/06 05:21:25;;;;;;;17.10;4.00;;;2.20;99.90;;;;;;5029553;28;20585;-80
2021/01/06 05:23:55;;;;;;;10.80;3.28;;;2.10;99.90;;;;;;5024964;28;20045;-80
2021/01/06 05:26:21;;;;;;;12.32;3.13;;;2.20;99.80;;;;;;5012490;28;20049;-79
2021/01/06 05:28:49;;;;;;;5.80;3.05;;;2.20;99.70;;;;;;5028542;28;20065;-81
2021/01/06 05:31:16;;;;;;;8.05;2.95;;;2.20;99.60;;;;;;5029621;28;20053;-80
2021/01/06 05:33:46;;;;;;;5.20;2.50;;;2.40;99.80;;;;;;5045175;28;20090;-79
2021/01/06 05:36:21;;;;;;;7.68;2.80;;;2.20;99.60;;;;;;5023857;28;20046;-80
2021/01/06 05:38:46;;;;;;;12.80;2.80;;;2.30;99.50;;;;;;5029778;28;20060;-79
2021/01/06 05:41:12;;;;;;;7.50;2.60;;;2.50;99.30;;;;;;5030673;28;20033;-81
2021/01/06 05:43:44;;;;;;;7.43;2.90;;;2.30;99.00;;;;;;5028450;28;20163;-79
2021/01/06 05:46:20;;;;;;;14.98;3.10;;;2.30;98.90;;;;;;5027697;28;20153;-81
2021/01/06 05:48:49;;;;;;;;;;;2.30;98.70;;;;;;5044547;28;20072;-80
2021/01/06 05:51:31;;;;;;;8.05;2.67;;;2.30;98.90;;;;;;5030652;28;19921;-79
2021/01/06 05:54:20;;;;;;;9.52;2.47;;;2.30;98.60;;;;;;5027666;28;20034;-78
2021/01/06 05:56:57;;;;;;;5.25;2.17;;;2.30;98.60;;;;;;4971570;28;20054;-78
2021/01/06 05:59:39;;;;;;;6.72;2.25;;;2.40;98.30;;;;;;4988511;28;20078;-78
2021/01/06 06:02:07;;;;;;;8.75;2.60;;;2.40;98.40;;;;;;4987313;28;20146;-77
2021/01/06 06:05:26;;;;;;;12.82;2.80;;;2.40;98.10;;;;;;4971331;28;20057;-79
2021/01/06 06:08:07;;;;;;;8.88;2.72;;;2.40;98.30;;;;;;4986708;28;20073;-79
2021/01/06 06:11:10;;;;;;;4.07;2.15;;;2.30;98.30;;;;;;4986537;28;20200;-79
2021/01/06 06:13:49;;;;;;;5.93;2.35;;;2.30;98.10;;;;;;4987302;28;20046;-79
2021/01/06 06:16:37;;;;;;;8.70;2.47;;;2.40;98.20;;;;;;4988373;28;20069;-80
2021/01/06 06:19:32;;;;;;;7.32;2.47;;;2.40;98.20;;;;;;4912128;29;20056;-79
2021/01/06 06:22:20;;;;;;;13.30;2.80;;;2.40;97.80;;;;;;4929489;29;20071;-79
2021/01/06 06:24:58;;;;;;;8.90;2.38;;;2.40;97.50;;;;;;4930518;29;20047;-79
2021/01/06 06:27:45;;;;;;;12.52;2.92;;;2.40;97.30;;;;;;4928464;29;20070;-77
2021/01/06 06:30:10;;;;;;;8.65;2.50;;;2.40;97.40;;;;;;4915849;29;20048;-78
2021/01/06 06:32:38;;;;;;;8.20;2.45;;;2.40;97.50;;;;;;4935511;29;20756;-78
2021/01/06 06:35:27;;;;;;;11.40;2.67;;;2.40;97.50;;;;;;4973766;28;20093;-78
2021/01/06 06:38:02;;;;;;;11.85;2.70;;;2.40;97.50;;;;;;4967778;28;20051;-79
2021/01/06 06:40:48;;;;;;;;;;;2.40;97.60;;;;;;4953757;28;20050;-78
2021/01/06 06:43:44;;;;;;;5.78;2.20;;;2.40;97.60;;;;;;4952680;28;20258;-78
2021/01/06 06:46:25;;;;;;;8.68;2.28;;;2.40;97.40;;;;;;4953594;28;20816;-78
2021/01/06 06:49:11;;;;;;;7.90;2.70;;;2.40;97.00;;;;;;4969140;28;20062;-78
2021/01/06 06:51:46;;;;;;;6.57;2.03;;;2.40;97.20;;;;;;4969722;28;20046;-78
2021/01/06 06:54:50;;;;;;;8.48;2.30;;;2.40;97.40;;;;;;4968861;28;20046;-78
2021/01/06 06:57:31;;;;;;;8.05;2.70;;;2.40;97.60;;;;;;5027891;28;20118;-78
2021/01/06 07:00:15;;;;;;;10.98;3.20;;;2.40;97.40;;;;;;5016587;28;20406;-78
2021/01/06 07:02:47;;;;;;;8.40;2.55;;;2.40;97.40;;;;;;5028515;28;20552;-78
2021/01/06 07:05:27;;;;;;;7.45;2.70;;;2.40;97.40;;;;;;5027035;28;20095;-78
2021/01/06 07:07:56;;;;;;;13.88;2.85;;;2.40;97.40;;;;;;5027963;28;22045;-77
2021/01/06 07:10:26;;;;;;;9.40;2.58;;;2.40;97.20;;;;;;5027910;28;20044;-77
2021/01/06 07:12:55;;;;;;;6.28;2.22;;;2.40;97.30;;;;;;5028535;28;20041;-77
2021/01/06 07:15:28;;;;;;;6.55;2.50;;;2.40;97.40;;;;;;5039122;28;20107;-77
2021/01/06 07:17:54;;;;;;;7.47;2.40;;;2.40;97.40;;;;;;5027873;28;20950;-78
2021/01/06 07:20:40;;;;;;;5.47;2.80;;;2.30;97.50;;;;;;5026276;28;20060;-78
2021/01/06 07:23:21;;;;;;;8.38;2.33;;;2.40;97.20;;;;;;5025379;28;20433;-78
2021/01/06 07:26:12;;;;;;;8.23;2.38;;;2.40;97.10;;;;;;5027409;28;20044;-78
2021/01/06 07:28:38;;;;;;;8.50;2.30;;;2.40;97.40;;;;;;5025873;28;20160;-78
2021/01/06 07:31:25;;;;;;;9.98;2.63;;;2.40;97.60;;;;;;5028003;28;20053;-79
2021/01/06 07:33:55;;;;;;;10.05;2.47;;;2.30;97.50;;;;;;5028395;28;20033;-79
2021/01/06 07:36:31;;;;;;;6.22;2.25;;;2.40;97.30;;;;;;5026417;28;20109;-79
2021/01/06 07:38:57;;;;;;;12.70;2.95;;;2.30;97.10;;;;;;5022980;28;20045;-77
2021/01/06 07:41:25;;;;;;;8.68;2.70;;;2.40;97.30;;;;;;5025381;28;20049;-78
2021/01/06 07:44:19;;;;;;;7.82;2.78;;;2.30;97.20;;;;;;5025874;28;20038;-78
2021/01/06 07:47:08;;;;;;;7.90;2.45;;;2.40;97.20;;;;;;5028000;28;20049;-78
2021/01/06 07:49:56;;;;;;;8.75;2.80;;;2.40;97.20;;;;;;5027072;28;20048;-78
2021/01/06 07:52:55;;;;;;;17.52;3.08;;;2.40;97.30;;;;;;5027237;28;20048;-80
2021/01/06 07:55:31;;;;;;;6.10;2.83;;;2.30;97.40;;;;;;5025605;28;20042;-79
2021/01/06 07:58:02;;;;;;;;;;;2.30;97.60;;;;;;5026539;28;20447;-80
2021/01/06 08:00:57;;;;;;;4.88;2.22;;;2.30;97.70;;;;;;5028137;28;19987;-79
2021/01/06 08:03:37;;;;;;;12.48;2.70;;;2.20;97.90;;;;;;5023697;28;20473;-80
2021/01/06 08:06:04;;;;;;;11.30;3.03;;;2.20;98.10;;;;;;5041340;28;20050;-79
2021/01/06 08:08:46;;;;;;;6.25;2.35;;;2.20;98.20;;;;;;5024932;28;20041;-79
2021/01/06 08:11:15;;;;;;;8.98;2.45;;;2.10;98.40;;;;;;5026127;28;20041;-80
2021/01/06 08:14:02;;;;;;;11.95;3.08;;;2.10;98.40;;;;;;5038787;28;20115;-79
2021/01/06 08:16:38;;;;;;;7.57;2.30;;;2.10;98.20;;;;;;5026158;28;20045;-80
2021/01/06 08:19:13;;;;;;;8.13;2.45;;;2.10;98.00;;;;;;5025060;28;20790;-80
2021/01/06 08:21:51;;;;;;;16.88;2.90;;;2.20;97.90;;;;;;5032837;28;20048;-80
2021/01/06 08:24:20;;;;;;;10.23;2.72;;;2.20;97.90;;;;;;5011583;28;20057;-79
2021/01/06 08:26:54;;;;;;;6.20;2.53;;;2.20;98.00;;;;;;5025677;28;20049;-79
2021/01/06 08:29:26;;;;;;;5.72;2.55;;;2.20;97.90;;;;;;5027747;28;20065;-80
2021/01/06 08:31:56;;;;;;;9.90;2.80;;;2.30;97.50;;;;;;5027190;28;20037;-80
2021/01/06 08:34:37;;;;;;;10.07;2.83;;;2.40;96.80;;;;;;5027118;28;20053;-80
2021/01/06 08:37:11;;;;;;;10.70;2.58;;;2.40;96.80;;;;;;5022398;28;20041;-80
2021/01/06 08:39:50;;;;;;;14.77;2.23;;;2.40;96.90;;;;;;5044470;28;20041;-81
2021/01/06 08:42:40;;;;;;;4.47;2.25;;;2.40;96.30;;;;;;5022898;28;20048;-79
2021/01/06 08:45:17;;;;;;;9.73;2.10;;;2.40;96.40;;;;;;5027139;28;20049;-79
2021/01/06 08:47:43;;;;;;;8.95;2.72;;;2.40;96.00;;;;;;5026282;28;20037;-79
2021/01/06 08:50:28;;;;;;;10.00;2.50;;;2.60;95.90;;;;;;5028151;28;20033;-79
2021/01/06 08:53:01;;;;;;;7.00;2.70;;;2.60;95.60;;;;;;5026499;28;20041;-79
2021/01/06 08:55:35;;;;;;;8.40;2.20;;;2.50;95.50;;;;;;5026197;28;20429;-79
2021/01/06 08:58:09;;;;;;;5.30;2.40;;;2.50;95.70;;;;;;5025124;28;20050;-79
2021/01/06 09:01:04;;;;;;;6.68;2.70;;;2.40;96.00;;;;;;5026262;28;20048;-80
2021/01/06 09:03:43;;;;;;;4.40;2.20;;;2.40;96.00;;;;;;5005191;28;20516;-81
2021/01/06 09:06:13;;;;;;;4.75;2.40;;;2.40;96.10;;;;;;4990862;28;20071;-79
2021/01/06 09:08:39;;;;;;;3.72;2.35;;;2.40;96.10;;;;;;4989891;28;20057;-81
2021/01/06 09:11:20;;;;;;;6.35;2.35;;;2.40;96.50;;;;;;4992136;28;20042;-82
2021/01/06 09:14:03;;;;;;;8.95;2.58;;;2.40;96.30;;;;;;5005750;28;20054;-81
2021/01/06 09:16:46;;;;;;;5.00;2.60;;;2.40;96.40;;;;;;4987753;28;20073;-81
2021/01/06 09:19:41;;;;;;;6.72;2.70;;;2.40;96.50;;;;;;4990067;28;20533;-81
2021/01/06 09:22:10;;;;;;;6.40;2.50;;;2.40;96.50;;;;;;5006500;28;20049;-82
2021/01/06 09:24:38;;;;;;;9.27;2.47;;;2.40;96.70;;;;;;4991144;28;20103;-82
2021/01/06 09:27:22;;;;;;;8.55;2.55;;;2.70;96.60;;;;;;5006447;28;20050;-81
2021/01/06 09:29:49;;;;;;;7.68;3.00;;;2.40;96.80;;;;;;5006613;28;20141;-80
2021/01/06 09:32:19;;;;;;;8.20;2.63;;;2.40;97.00;;;;;;5004881;28;20127;-80
2021/01/06 09:34:49;;;;;;;7.05;3.00;;;2.40;97.20;;;;;;5008754;28;20587;-80
2021/01/06 09:37:27;;;;;;;6.88;2.45;;;2.30;97.30;;;;;;5005254;28;20069;-79
2021/01/06 09:39:58;;;;;;;5.97;2.80;;;2.20;97.40;;;;;;5013828;28;20049;-80
2021/01/06 09:42:24;;;;;;;6.63;2.88;;;2.30;97.60;;;;;;5024048;28;20064;-79
2021/01/06 09:44:50;;;;;;;6.22;2.75;;;2.30;97.50;;;;;;5026190;28;20469;-78
2021/01/06 09:47:21;;;;;;;6.60;2.70;;;2.30;97.50;;;;;;5032240;28;20045;-79
2021/01/06 09:49:57;;;;;;;4.72;2.80;;;2.20;97.90;;;;;;5028005;28;20104;-79
2021/01/06 09:52:44;;;;;;;5.53;2.70;;;2.20;98.10;;;;;;5011596;28;20049;-80
2021/01/06 09:55:16;;;;;;;5.38;2.60;;;2.20;98.50;;;;;;5027818;28;20056;-79
2021/01/06 09:57:43;;;;;;;7.57;2.92;;;2.10;98.90;;;;;;5029017;28;20445;-80
2021/01/06 10:00:22;;;;;;;5.70;3.30;;;1.90;99.30;;;;;;5029438;28;20078;-80
2021/01/06 10:02:49;;;;;;;7.18;3.10;;;2.00;99.50;;;;;;5029548;28;20037;-81
2021/01/06 10:05:43;;;;;;;14.13;2.72;;;1.90;99.70;;;;;;5030753;28;20484;-81
2021/01/06 10:08:46;;;;;;;6.07;2.80;;;1.90;99.90;;;;;;5038208;28;20107;-80
2021/01/06 10:11:38;;;;;;;5.75;2.80;;;1.90;99.80;;;;;;5029873;28;20033;-81
2021/01/06 10:14:17;;;;;;;6.97;3.03;;;1.90;99.90;;;;;;5026590;28;20423;-80
2021/01/06 10:16:53;;;;;;;6.38;2.78;;;1.90;99.90;;;;;;5028999;28;20045;-80
2021/01/06 10:19:42;;;;;;;4.88;2.83;;;1.90;99.90;;;;;;5029868;28;20068;-80
2021/01/06 10:22:31;;;;;;;5.78;2.78;;;1.90;99.90;;;;;;5029655;28;20362;-80
2021/01/06 10:25:07;;;;;;;5.25;2.90;;;2.00;99.90;;;;;;5027572;28;20065;-80
2021/01/06 10:27:42;;;;;;;6.55;3.03;;;1.90;99.90;;;;;;5028259;28;20451;-80
2021/01/06 10:30:14;;;;;;;6.03;2.80;;;1.90;99.90;;;;;;5029680;28;20435;-80
2021/01/06 10:32:46;;;;;;;7.53;3.38;;;2.00;99.90;;;;;;5027607;28;20558;-79
2021/01/06 10:35:37;;;;;;;7.07;3.08;;;2.30;99.90;;;;;;5027534;28;20184;-80
2021/01/06 10:38:44;;;;;;;6.72;2.55;;;2.10;99.90;;;;;;5027255;28;20064;-81
2021/01/06 10:41:12;;;;;;;3.80;2.72;;;2.10;99.90;;;;;;5004023;28;20366;-80
2021/01/06 10:43:41;;;;;;;8.52;3.00;;;2.10;99.90;;;;;;5007179;28;20057;-80
2021/01/06 10:46:36;;;;;;;4.28;2.25;;;2.10;99.90;;;;;;4983313;28;20069;-80
2021/01/06 10:49:11;;;;;;;6.03;2.40;;;2.10;99.90;;;;;;5003791;28;20128;-79
2021/01/06 10:51:56;;;;;;;5.28;2.40;;;2.10;99.90;;;;;;5004203;28;20116;-80
2021/01/06 10:54:39;;;;;;;6.57;2.17;;;2.10;99.90;;;;;;5003570;28;20140;-80
2021/01/06 10:57:47;;;;;;;5.82;2.00;;;2.10;99.90;;;;;;4989847;28;20488;-79
2021/01/06 11:00:27;;;;;;;5.80;2.50;;;2.10;99.90;;;;;;4987001;28;20068;-80
2021/01/06 11:03:34;;;;;;;4.82;2.13;;;2.30;99.90;;;;;;4990945;28;20560;-79
2021/01/06 11:06:03;;;;;;;3.65;2.45;;;1.90;99.90;;;;;;5006377;28;20054;-79
2021/01/06 11:09:06;;;;;;;4.80;2.05;;;2.00;99.90;;;;;;5004226;28;20046;-79
2021/01/06 11:11:51;;;;;;;7.07;2.92;;;2.00;99.90;;;;;;5003250;28;20053;-79
2021/01/06 11:14:33;;;;;;;8.20;2.47;;;2.00;99.90;;;;;;5009487;28;20038;-80
2021/01/06 11:17:27;;;;;;;5.93;2.53;;;2.00;99.90;;;;;;4989493;28;20045;-80
2021/01/06 11:20:04;;;;;;;5.40;2.80;;;1.90;99.90;;;;;;5025939;28;20045;-80
2021/01/06 11:22:46;;;;;;;4.38;2.30;;;1.90;99.90;;;;;;5025686;28;20108;-80
2021/01/06 11:25:30;;;;;;;7.50;2.75;;;1.90;99.90;;;;;;5031022;28;20063;-80
2021/01/06 11:27:56;;;;;;;4.45;2.50;;;1.90;99.90;;;;;;5027531;28;20555;-79
2021/01/06 11:30:28;;;;;;;5.38;2.65;;;1.90;99.90;;;;;;5028842;28;20061;-80
2021/01/06 11:33:15;;;;;;;7.22;2.80;;;2.00;99.90;;;;;;5011923;28;20049;-80
2021/01/06 11:35:51;;;;;;;6.57;2.58;;;2.00;99.90;;;;;;5012762;28;20103;-80
2021/01/06 11:38:38;;;;;;;4.20;2.25;;;1.90;99.90;;;;;;5027975;28;20558;-80
2021/01/06 11:41:13;;;;;;;6.70;2.60;;;1.90;99.90;;;;;;4992835;28;20046;-80
2021/01/06 11:43:56;;;;;;;5.47;2.30;;;1.90;99.90;;;;;;5028382;28;20503;-80
2021/01/06 11:46:25;;;;;;;5.75;2.10;;;1.90;99.90;;;;;;5028683;28;20083;-80
2021/01/06 11:49:05;;;;;;;5.47;2.38;;;1.80;99.90;;;;;;5029408;28;20045;-80
2021/01/06 11:51:31;;;;;;;4.97;2.20;;;1.70;99.90;;;;;;5026053;28;20161;-81
2021/01/06 11:54:16;;;;;;;2.92;1.80;;;1.70;99.90;;;;;;5026358;28;20532;-81
2021/01/06 11:56:49;;;;;;;6.25;1.58;;;1.60;99.90;;;;;;5028391;28;20408;-81
2021/01/06 11:59:40;;;;;;;6.22;2.20;;;1.60;99.90;;;;;;5044737;28;20183;-81
2021/01/06 12:02:13;;;;;;;4.80;2.17;;;1.60;99.90;;;;;;5015246;28;20037;-81
2021/01/06 12:05:01;;;;;;;7.25;2.70;;;1.60;99.90;;;;;;5027333;28;20045;-81
2021/01/06 12:07:49;;;;;;;7.68;2.45;;;1.60;99.90;;;;;;5028991;28;20457;-80
2021/01/06 12:10:53;;;;;;;6.20;2.42;;;1.60;99.90;;;;;;5027721;28;21212;-80
2021/01/06 12:13:19;;;;;;;2.83;2.00;;;1.50;99.90;;;;;;5025830;28;20091;-81
2021/01/06 12:15:52;;;;;;;4.63;2.60;;;1.50;99.90;;;;;;5024026;28;20041;-81
2021/01/06 12:18:39;;;;;;;6.40;2.60;;;1.50;99.90;;;;;;5025781;28;20168;-83
2021/01/06 12:21:39;;;;;;;5.40;2.60;;;1.50;99.90;;;;;;5024468;28;20052;-81
2021/01/06 12:24:30;;;;;;;7.00;2.90;;;1.50;99.90;;;;;;5025311;28;20172;-81
2021/01/06 12:27:34;;;;;;;6.57;2.78;;;1.60;99.90;;;;;;5025318;28;20109;-80
2021/01/06 12:30:09;;;;;;;4.40;2.53;;;1.60;99.90;;;;;;4988839;28;20139;-83
2021/01/06 12:32:55;;;;;;;4.75;2.53;;;1.70;99.90;;;;;;5007297;28;20037;-82
2021/01/06 12:35:35;;;;;;;4.82;2.97;;;1.70;99.90;;;;;;4997122;28;20045;-81
2021/01/06 12:38:18;;;;;;;7.53;3.60;;;1.70;99.90;;;;;;4983696;28;20050;-80
2021/01/06 12:41:19;;;;;;;6.72;3.67;;;1.80;99.90;;;;;;4987763;28;20053;-79
2021/01/06 12:43:56;;;;;;;7.45;3.42;;;1.80;99.90;;;;;;4965352;28;20046;-79
2021/01/06 12:46:37;;;;;;;8.98;4.13;;;1.80;99.90;;;;;;4965756;28;20053;-79
2021/01/06 12:49:24;;;;;;;5.57;3.20;;;1.90;99.90;;;;;;4962351;28;20445;-79
2021/01/06 12:51:53;;;;;;;9.98;2.85;;;2.00;99.90;;;;;;4964313;28;20697;-77
2021/01/06 12:54:21;;;;;;;10.52;2.60;;;2.00;99.90;;;;;;4950778;28;20461;-80
2021/01/06 12:57:00;;;;;;;7.22;2.95;;;1.90;99.90;;;;;;4967930;28;20134;-80
2021/01/06 12:59:27;;;;;;;5.85;2.13;;;1.90;99.90;;;;;;4963115;28;20054;-81
2021/01/06 13:01:59;;;;;;;5.57;2.05;;;1.70;99.90;;;;;;4967511;28;20054;-81
2021/01/06 13:04:38;;;;;;;5.85;2.08;;;1.80;99.90;;;;;;4967144;28;20053;-81
2021/01/06 13:07:13;;;;;;;6.03;1.88;;;1.50;99.90;;;;;;4966925;28;20074;-81
2021/01/06 13:09:42;;;;;;;4.45;1.90;;;1.40;99.90;;;;;;4946439;28;20680;-80
2021/01/06 13:12:11;;;;;;;5.15;2.00;;;1.30;99.90;;;;;;4976024;28;20047;-81
2021/01/06 13:14:44;;;;;;;3.65;1.85;;;1.50;99.90;;;;;;4982788;28;20058;-81
2021/01/06 13:17:13;;;;;;;4.53;1.58;;;1.60;99.90;;;;;;4986652;28;20057;-80
2021/01/06 13:20:00;;;;;;;3.22;1.63;;;1.40;99.90;;;;;;4994309;28;20062;-80
2021/01/06 13:22:42;;;;;;;5.80;2.42;;;1.50;99.90;;;;;;5026489;28;20052;-80
2021/01/06 13:25:17;;;;;;;3.03;1.70;;;1.50;99.90;;;;;;5032335;28;20053;-80
2021/01/06 13:27:51;;;;;;;4.70;1.60;;;1.50;99.90;;;;;;5031548;28;20456;-79
2021/01/06 13:30:29;;;;;;;5.90;1.83;;;1.60;99.90;;;;;;5031953;28;20088;-77
2021/01/06 13:33:28;;;;;;;3.60;1.60;;;1.70;99.90;;;;;;5027970;28;20111;-79
2021/01/06 13:35:57;;;;;;;3.17;1.75;;;1.70;99.90;;;;;;5027074;28;20069;-79
2021/01/06 13:38:32;;;;;;;3.60;2.05;;;1.60;99.90;;;;;;5026863;28;20087;-79
2021/01/06 13:41:19;;;;;;;4.70;1.98;;;1.70;99.90;;;;;;5031353;28;20037;-79